sensor_id;sensor_type;location;lat;lon;timestamp;pressure;altitude;pressure_sealevel;temperature;humidity
46464;BME280;32161;48.148;-1.554;2023-03-18T00:00:21;99900.09;;;11.66;93.02
46464;BME280;32161;48.148;-1.554;2023-03-18T00:02:49;99901.22;;;11.70;92.80
46464;BME280;32161;48.148;-1.554;2023-03-18T00:05:18;99910.72;;;11.68;92.39
46464;BME280;32161;48.148;-1.554;2023-03-18T00:07:46;99909.88;;;11.67;92.78
46464;BME280;32161;48.148;-1.554;2023-03-18T00:10:14;99906.88;;;11.64;92.91
46464;BME280;32161;48.148;-1.554;2023-03-18T00:12:44;99903.47;;;11.52;93.34
46464;BME280;32161;48.148;-1.554;2023-03-18T00:15:14;99901.88;;;11.56;93.06
46464;BME280;32161;48.148;-1.554;2023-03-18T00:17:44;99895.44;;;11.62;93.32
46464;BME280;32161;48.148;-1.554;2023-03-18T00:20:12;99892.78;;;11.72;92.38
46464;BME280;32161;48.148;-1.554;2023-03-18T00:22:42;99899.75;;;11.58;93.10
46464;BME280;32161;48.148;-1.554;2023-03-18T00:25:13;99891.91;;;11.34;94.44
46464;BME280;32161;48.148;-1.554;2023-03-18T00:27:41;99896.41;;;11.51;94.77
46464;BME280;32161;48.148;-1.554;2023-03-18T00:30:12;99884.44;;;11.52;94.59
46464;BME280;32161;48.148;-1.554;2023-03-18T00:32:40;99890.38;;;11.48;94.89
46464;BME280;32161;48.148;-1.554;2023-03-18T00:35:08;99893.41;;;11.25;95.64
46464;BME280;32161;48.148;-1.554;2023-03-18T00:37:37;99889.16;;;11.34;96.42
46464;BME280;32161;48.148;-1.554;2023-03-18T00:40:07;99888.59;;;11.32;96.25
46464;BME280;32161;48.148;-1.554;2023-03-18T00:42:37;99887.66;;;11.48;95.53
46464;BME280;32161;48.148;-1.554;2023-03-18T00:45:15;99881.00;;;11.34;96.15
46464;BME280;32161;48.148;-1.554;2023-03-18T00:47:43;99880.06;;;11.23;97.45
46464;BME280;32161;48.148;-1.554;2023-03-18T00:50:13;99880.75;;;11.36;96.69
46464;BME280;32161;48.148;-1.554;2023-03-18T00:52:41;99869.03;;;11.35;96.76
46464;BME280;32161;48.148;-1.554;2023-03-18T00:55:09;99868.38;;;11.23;96.99
46464;BME280;32161;48.148;-1.554;2023-03-18T00:57:37;99875.72;;;11.22;96.88
46464;BME280;32161;48.148;-1.554;2023-03-18T01:00:06;99864.75;;;11.17;97.74
46464;BME280;32161;48.148;-1.554;2023-03-18T01:02:36;99864.13;;;11.10;98.69
46464;BME280;32161;48.148;-1.554;2023-03-18T01:05:04;99859.59;;;11.16;98.65
46464;BME280;32161;48.148;-1.554;2023-03-18T01:07:32;99859.47;;;11.06;99.58
46464;BME280;32161;48.148;-1.554;2023-03-18T01:09:59;99861.19;;;11.12;99.10
46464;BME280;32161;48.148;-1.554;2023-03-18T01:12:27;99854.34;;;11.09;99.18
46464;BME280;32161;48.148;-1.554;2023-03-18T01:14:54;99855.44;;;11.08;99.52
46464;BME280;32161;48.148;-1.554;2023-03-18T01:17:23;99855.06;;;10.99;100.00
46464;BME280;32161;48.148;-1.554;2023-03-18T01:19:52;99847.34;;;10.91;100.00
46464;BME280;32161;48.148;-1.554;2023-03-18T01:22:20;99854.66;;;11.13;100.00
46464;BME280;32161;48.148;-1.554;2023-03-18T01:24:48;99846.38;;;11.03;100.00
46464;BME280;32161;48.148;-1.554;2023-03-18T01:27:16;99841.00;;;11.08;100.00
46464;BME280;32161;48.148;-1.554;2023-03-18T01:29:44;99835.00;;;11.06;100.00
46464;BME280;32161;48.148;-1.554;2023-03-18T01:32:12;99831.19;;;11.07;100.00
46464;BME280;32161;48.148;-1.554;2023-03-18T01:34:41;99831.72;;;11.04;100.00
46464;BME280;32161;48.148;-1.554;2023-03-18T01:37:10;99809.28;;;10.91;100.00
46464;BME280;32161;48.148;-1.554;2023-03-18T01:39:38;99812.53;;;10.88;100.00
46464;BME280;32161;48.148;-1.554;2023-03-18T01:42:06;99810.31;;;10.85;100.00
46464;BME280;32161;48.148;-1.554;2023-03-18T01:44:34;99795.69;;;10.91;100.00
46464;BME280;32161;48.148;-1.554;2023-03-18T01:47:02;99802.53;;;10.72;100.00
46464;BME280;32161;48.148;-1.554;2023-03-18T01:49:34;99800.75;;;10.83;100.00
46464;BME280;32161;48.148;-1.554;2023-03-18T01:52:05;99793.38;;;10.78;100.00
46464;BME280;32161;48.148;-1.554;2023-03-18T01:54:40;99792.09;;;10.86;100.00
46464;BME280;32161;48.148;-1.554;2023-03-18T01:57:09;99795.00;;;10.79;100.00
46464;BME280;32161;48.148;-1.554;2023-03-18T01:59:40;99790.19;;;10.86;100.00
46464;BME280;32161;48.148;-1.554;2023-03-18T02:02:11;99787.34;;;10.76;100.00
46464;BME280;32161;48.148;-1.554;2023-03-18T02:04:48;99788.91;;;10.67;100.00
46464;BME280;32161;48.148;-1.554;2023-03-18T02:07:18;99786.13;;;10.62;100.00
46464;BME280;32161;48.148;-1.554;2023-03-18T02:09:49;99782.00;;;10.59;100.00
46464;BME280;32161;48.148;-1.554;2023-03-18T02:12:23;99781.81;;;10.66;100.00
46464;BME280;32161;48.148;-1.554;2023-03-18T02:14:51;99777.25;;;10.71;100.00
46464;BME280;32161;48.148;-1.554;2023-03-18T02:17:22;99784.28;;;10.67;100.00
46464;BME280;32161;48.148;-1.554;2023-03-18T02:20:03;99778.03;;;10.67;100.00
46464;BME280;32161;48.148;-1.554;2023-03-18T02:22:40;99786.00;;;10.73;100.00
46464;BME280;32161;48.148;-1.554;2023-03-18T02:25:24;99777.34;;;10.55;100.00
46464;BME280;32161;48.148;-1.554;2023-03-18T02:28:00;99779.72;;;10.73;100.00
46464;BME280;32161;48.148;-1.554;2023-03-18T02:30:34;99780.59;;;10.79;100.00
46464;BME280;32161;48.148;-1.554;2023-03-18T02:33:03;99774.63;;;10.77;100.00
46464;BME280;32161;48.148;-1.554;2023-03-18T02:35:32;99761.34;;;10.80;100.00
46464;BME280;32161;48.148;-1.554;2023-03-18T02:38:01;99762.84;;;10.71;100.00
46464;BME280;32161;48.148;-1.554;2023-03-18T02:40:33;99765.25;;;10.67;100.00
46464;BME280;32161;48.148;-1.554;2023-03-18T02:43:22;99751.44;;;10.69;100.00
46464;BME280;32161;48.148;-1.554;2023-03-18T02:46:10;99758.53;;;10.75;100.00
46464;BME280;32161;48.148;-1.554;2023-03-18T02:48:42;99741.91;;;10.71;100.00
46464;BME280;32161;48.148;-1.554;2023-03-18T02:51:13;99728.91;;;10.73;100.00
46464;BME280;32161;48.148;-1.554;2023-03-18T02:53:42;99739.13;;;10.88;100.00
46464;BME280;32161;48.148;-1.554;2023-03-18T02:56:10;99733.25;;;11.02;100.00
46464;BME280;32161;48.148;-1.554;2023-03-18T02:58:40;99721.03;;;11.04;100.00
46464;BME280;32161;48.148;-1.554;2023-03-18T03:01:09;99733.00;;;10.76;100.00
46464;BME280;32161;48.148;-1.554;2023-03-18T03:03:37;99731.97;;;10.82;100.00
46464;BME280;32161;48.148;-1.554;2023-03-18T03:06:05;99733.56;;;10.78;100.00
46464;BME280;32161;48.148;-1.554;2023-03-18T03:08:33;99731.50;;;10.63;100.00
46464;BME280;32161;48.148;-1.554;2023-03-18T03:11:01;99723.56;;;10.84;100.00
46464;BME280;32161;48.148;-1.554;2023-03-18T03:13:29;99713.75;;;10.83;100.00
46464;BME280;32161;48.148;-1.554;2023-03-18T03:15:59;99723.88;;;10.60;100.00
46464;BME280;32161;48.148;-1.554;2023-03-18T03:18:26;99722.22;;;10.86;100.00
46464;BME280;32161;48.148;-1.554;2023-03-18T03:20:55;99719.00;;;10.89;100.00
46464;BME280;32161;48.148;-1.554;2023-03-18T03:23:23;99714.19;;;10.96;100.00
46464;BME280;32161;48.148;-1.554;2023-03-18T03:25:50;99713.09;;;10.97;100.00
46464;BME280;32161;48.148;-1.554;2023-03-18T03:28:18;99709.28;;;10.98;100.00
46464;BME280;32161;48.148;-1.554;2023-03-18T03:30:47;99723.88;;;10.87;100.00
46464;BME280;32161;48.148;-1.554;2023-03-18T03:33:16;99719.31;;;10.93;100.00
46464;BME280;32161;48.148;-1.554;2023-03-18T03:35:44;99721.72;;;10.89;100.00
46464;BME280;32161;48.148;-1.554;2023-03-18T03:38:11;99734.00;;;10.92;100.00
46464;BME280;32161;48.148;-1.554;2023-03-18T03:40:39;99729.44;;;11.03;100.00
46464;BME280;32161;48.148;-1.554;2023-03-18T03:43:09;99728.13;;;11.05;100.00
46464;BME280;32161;48.148;-1.554;2023-03-18T03:45:38;99742.00;;;11.04;100.00
46464;BME280;32161;48.148;-1.554;2023-03-18T03:48:06;99738.28;;;11.15;100.00
46464;BME280;32161;48.148;-1.554;2023-03-18T03:50:35;99737.41;;;11.09;100.00
46464;BME280;32161;48.148;-1.554;2023-03-18T03:53:04;99734.84;;;10.97;100.00
46464;BME280;32161;48.148;-1.554;2023-03-18T03:55:32;99744.41;;;11.00;100.00
46464;BME280;32161;48.148;-1.554;2023-03-18T03:58:00;99756.78;;;11.18;100.00
46464;BME280;32161;48.148;-1.554;2023-03-18T04:00:28;99766.03;;;11.17;100.00
46464;BME280;32161;48.148;-1.554;2023-03-18T04:02:56;99776.81;;;11.07;100.00
46464;BME280;32161;48.148;-1.554;2023-03-18T04:05:24;99776.41;;;11.20;100.00
46464;BME280;32161;48.148;-1.554;2023-03-18T04:07:54;99782.75;;;11.31;100.00
46464;BME280;32161;48.148;-1.554;2023-03-18T04:10:26;99789.19;;;11.52;100.00
46464;BME280;32161;48.148;-1.554;2023-03-18T04:12:54;99784.03;;;11.55;100.00
46464;BME280;32161;48.148;-1.554;2023-03-18T04:15:22;99788.16;;;11.58;100.00
46464;BME280;32161;48.148;-1.554;2023-03-18T04:17:51;99788.75;;;11.65;100.00
46464;BME280;32161;48.148;-1.554;2023-03-18T04:20:19;99797.97;;;11.64;100.00
46464;BME280;32161;48.148;-1.554;2023-03-18T04:22:47;99792.00;;;11.62;100.00
46464;BME280;32161;48.148;-1.554;2023-03-18T04:25:16;99804.59;;;11.73;100.00
46464;BME280;32161;48.148;-1.554;2023-03-18T04:27:44;99806.63;;;11.56;100.00
46464;BME280;32161;48.148;-1.554;2023-03-18T04:30:13;99803.50;;;11.74;100.00
46464;BME280;32161;48.148;-1.554;2023-03-18T04:32:40;99798.75;;;11.91;100.00
46464;BME280;32161;48.148;-1.554;2023-03-18T04:35:09;99806.53;;;11.78;100.00
46464;BME280;32161;48.148;-1.554;2023-03-18T04:37:37;99809.56;;;11.81;100.00
46464;BME280;32161;48.148;-1.554;2023-03-18T04:40:06;99809.56;;;11.81;100.00
46464;BME280;32161;48.148;-1.554;2023-03-18T04:42:35;99802.22;;;11.82;100.00
46464;BME280;32161;48.148;-1.554;2023-03-18T04:45:04;99805.63;;;11.67;100.00
46464;BME280;32161;48.148;-1.554;2023-03-18T04:47:31;99806.34;;;11.84;100.00
46464;BME280;32161;48.148;-1.554;2023-03-18T04:50:01;99807.47;;;11.88;100.00
46464;BME280;32161;48.148;-1.554;2023-03-18T04:52:29;99817.44;;;11.78;100.00
46464;BME280;32161;48.148;-1.554;2023-03-18T04:54:57;99809.38;;;11.88;100.00
46464;BME280;32161;48.148;-1.554;2023-03-18T04:57:25;99807.47;;;11.88;100.00
46464;BME280;32161;48.148;-1.554;2023-03-18T04:59:55;99804.19;;;11.91;100.00
46464;BME280;32161;48.148;-1.554;2023-03-18T05:02:23;99814.56;;;11.94;100.00
46464;BME280;32161;48.148;-1.554;2023-03-18T05:04:50;99814.41;;;11.74;100.00
46464;BME280;32161;48.148;-1.554;2023-03-18T05:07:18;99814.69;;;11.78;100.00
46464;BME280;32161;48.148;-1.554;2023-03-18T05:09:46;99805.75;;;11.82;100.00
46464;BME280;32161;48.148;-1.554;2023-03-18T05:12:15;99806.38;;;11.89;100.00
46464;BME280;32161;48.148;-1.554;2023-03-18T05:14:43;99808.59;;;11.97;100.00
46464;BME280;32161;48.148;-1.554;2023-03-18T05:17:14;99799.59;;;11.92;100.00
46464;BME280;32161;48.148;-1.554;2023-03-18T05:19:43;99811.59;;;11.96;100.00
46464;BME280;32161;48.148;-1.554;2023-03-18T05:22:12;99808.53;;;11.87;100.00
46464;BME280;32161;48.148;-1.554;2023-03-18T05:24:41;99810.72;;;11.90;100.00
46464;BME280;32161;48.148;-1.554;2023-03-18T05:27:11;99813.72;;;11.89;100.00
46464;BME280;32161;48.148;-1.554;2023-03-18T05:29:39;99817.25;;;11.84;100.00
46464;BME280;32161;48.148;-1.554;2023-03-18T05:32:09;99817.41;;;11.72;100.00
46464;BME280;32161;48.148;-1.554;2023-03-18T05:34:39;99813.44;;;11.85;100.00
46464;BME280;32161;48.148;-1.554;2023-03-18T05:37:09;99818.31;;;11.83;100.00
46464;BME280;32161;48.148;-1.554;2023-03-18T05:39:37;99815.56;;;11.83;100.00
46464;BME280;32161;48.148;-1.554;2023-03-18T05:42:06;99826.53;;;11.88;100.00
46464;BME280;32161;48.148;-1.554;2023-03-18T05:44:34;99821.94;;;11.99;100.00
46464;BME280;32161;48.148;-1.554;2023-03-18T05:47:01;99823.59;;;12.00;100.00
46464;BME280;32161;48.148;-1.554;2023-03-18T05:49:29;99826.09;;;12.07;100.00
46464;BME280;32161;48.148;-1.554;2023-03-18T05:51:58;99817.56;;;11.93;100.00
46464;BME280;32161;48.148;-1.554;2023-03-18T05:54:26;99819.19;;;11.94;100.00
46464;BME280;32161;48.148;-1.554;2023-03-18T05:56:54;99819.34;;;11.77;100.00
46464;BME280;32161;48.148;-1.554;2023-03-18T05:59:22;99823.97;;;11.77;100.00
46464;BME280;32161;48.148;-1.554;2023-03-18T06:01:50;99823.22;;;11.86;100.00
46464;BME280;32161;48.148;-1.554;2023-03-18T06:04:18;99824.31;;;11.85;100.00
46464;BME280;32161;48.148;-1.554;2023-03-18T06:06:47;99828.13;;;11.84;100.00
46464;BME280;32161;48.148;-1.554;2023-03-18T06:09:16;99819.84;;;11.74;100.00
46464;BME280;32161;48.148;-1.554;2023-03-18T06:11:44;99826.53;;;11.88;100.00
46464;BME280;32161;48.148;-1.554;2023-03-18T06:14:12;99835.47;;;11.84;100.00
46464;BME280;32161;48.148;-1.554;2023-03-18T06:16:40;99826.63;;;11.71;100.00
46464;BME280;32161;48.148;-1.554;2023-03-18T06:19:09;99837.56;;;11.77;100.00
46464;BME280;32161;48.148;-1.554;2023-03-18T06:21:38;99831.91;;;11.51;100.00
46464;BME280;32161;48.148;-1.554;2023-03-18T06:24:07;99838.78;;;11.59;100.00
46464;BME280;32161;48.148;-1.554;2023-03-18T06:26:36;99848.41;;;11.71;100.00
46464;BME280;32161;48.148;-1.554;2023-03-18T06:29:04;99846.38;;;11.57;100.00
46464;BME280;32161;48.148;-1.554;2023-03-18T06:31:32;99838.47;;;11.55;100.00
46464;BME280;32161;48.148;-1.554;2023-03-18T06:34:00;99839.91;;;11.63;100.00
46464;BME280;32161;48.148;-1.554;2023-03-18T06:36:28;99840.91;;;11.57;100.00
46464;BME280;32161;48.148;-1.554;2023-03-18T06:38:55;99844.63;;;11.72;100.00
46464;BME280;32161;48.148;-1.554;2023-03-18T06:41:24;99850.56;;;11.69;100.00
46464;BME280;32161;48.148;-1.554;2023-03-18T06:43:54;99849.81;;;11.79;100.00
46464;BME280;32161;48.148;-1.554;2023-03-18T06:46:22;99848.69;;;11.75;100.00
46464;BME280;32161;48.148;-1.554;2023-03-18T06:48:50;99849.31;;;11.82;100.00
46464;BME280;32161;48.148;-1.554;2023-03-18T06:51:19;99857.44;;;11.77;100.00
46464;BME280;32161;48.148;-1.554;2023-03-18T06:53:46;99858.56;;;11.81;100.00
46464;BME280;32161;48.148;-1.554;2023-03-18T06:56:14;99858.09;;;11.84;100.00
46464;BME280;32161;48.148;-1.554;2023-03-18T06:58:42;99869.16;;;11.78;100.00
46464;BME280;32161;48.148;-1.554;2023-03-18T07:01:11;99861.25;;;11.76;100.00
46464;BME280;32161;48.148;-1.554;2023-03-18T07:03:39;99868.75;;;11.64;100.00
46464;BME280;32161;48.148;-1.554;2023-03-18T07:06:06;99871.75;;;11.62;100.00
46464;BME280;32161;48.148;-1.554;2023-03-18T07:08:35;99879.44;;;11.70;100.00
46464;BME280;32161;48.148;-1.554;2023-03-18T07:11:03;99879.75;;;11.74;100.00
46464;BME280;32161;48.148;-1.554;2023-03-18T07:13:32;99879.25;;;11.82;100.00
46464;BME280;32161;48.148;-1.554;2023-03-18T07:16:00;99883.66;;;11.83;100.00
46464;BME280;32161;48.148;-1.554;2023-03-18T07:18:30;99883.84;;;11.77;100.00
46464;BME280;32161;48.148;-1.554;2023-03-18T07:20:57;99893.31;;;11.69;100.00
46464;BME280;32161;48.148;-1.554;2023-03-18T07:23:25;99885.69;;;11.71;100.00
46464;BME280;32161;48.148;-1.554;2023-03-18T07:25:53;99889.72;;;11.63;100.00
46464;BME280;32161;48.148;-1.554;2023-03-18T07:28:21;99894.19;;;11.80;100.00
46464;BME280;32161;48.148;-1.554;2023-03-18T07:30:49;99888.59;;;11.86;100.00
46464;BME280;32161;48.148;-1.554;2023-03-18T07:33:17;99898.50;;;12.03;100.00
46464;BME280;32161;48.148;-1.554;2023-03-18T07:35:46;99903.22;;;11.80;100.00
46464;BME280;32161;48.148;-1.554;2023-03-18T07:38:14;99909.81;;;11.84;100.00
46464;BME280;32161;48.148;-1.554;2023-03-18T07:40:43;99906.50;;;11.82;100.00
46464;BME280;32161;48.148;-1.554;2023-03-18T07:43:11;99907.91;;;11.85;100.00
46464;BME280;32161;48.148;-1.554;2023-03-18T07:45:38;99912.28;;;11.86;100.00
46464;BME280;32161;48.148;-1.554;2023-03-18T07:48:06;99914.00;;;11.97;100.00
46464;BME280;32161;48.148;-1.554;2023-03-18T07:50:34;99920.78;;;11.94;100.00
46464;BME280;32161;48.148;-1.554;2023-03-18T07:53:03;99922.47;;;12.01;100.00
46464;BME280;32161;48.148;-1.554;2023-03-18T07:55:31;99927.94;;;12.01;100.00
46464;BME280;32161;48.148;-1.554;2023-03-18T07:57:59;99933.19;;;12.12;100.00
46464;BME280;32161;48.148;-1.554;2023-03-18T08:00:26;99932.63;;;12.10;100.00
46464;BME280;32161;48.148;-1.554;2023-03-18T08:02:54;99938.34;;;12.09;100.00
46464;BME280;32161;48.148;-1.554;2023-03-18T08:05:22;99938.84;;;12.06;100.00
46464;BME280;32161;48.148;-1.554;2023-03-18T08:07:50;99948.97;;;12.10;100.00
46464;BME280;32161;48.148;-1.554;2023-03-18T08:10:22;99944.13;;;12.17;100.00
46464;BME280;32161;48.148;-1.554;2023-03-18T08:12:50;99951.56;;;11.95;100.00
46464;BME280;32161;48.148;-1.554;2023-03-18T08:15:18;99947.63;;;12.13;100.00
46464;BME280;32161;48.148;-1.554;2023-03-18T08:17:45;99953.78;;;12.30;100.00
46464;BME280;32161;48.148;-1.554;2023-03-18T08:20:13;99959.78;;;12.32;100.00
46464;BME280;32161;48.148;-1.554;2023-03-18T08:22:41;99963.25;;;12.23;100.00
46464;BME280;32161;48.148;-1.554;2023-03-18T08:25:11;99971.94;;;12.19;100.00
46464;BME280;32161;48.148;-1.554;2023-03-18T08:27:40;99966.72;;;12.18;100.00
46464;BME280;32161;48.148;-1.554;2023-03-18T08:30:10;99973.84;;;12.19;100.00
46464;BME280;32161;48.148;-1.554;2023-03-18T08:32:38;99966.22;;;12.21;100.00
46464;BME280;32161;48.148;-1.554;2023-03-18T08:35:07;99976.59;;;12.24;100.00
46464;BME280;32161;48.148;-1.554;2023-03-18T08:37:36;99972.38;;;12.38;100.00
46464;BME280;32161;48.148;-1.554;2023-03-18T08:40:05;99967.56;;;12.56;100.00
46464;BME280;32161;48.148;-1.554;2023-03-18T08:42:34;99969.19;;;12.57;100.00
46464;BME280;32161;48.148;-1.554;2023-03-18T08:45:04;99976.38;;;12.68;100.00
46464;BME280;32161;48.148;-1.554;2023-03-18T08:47:32;99981.28;;;12.66;100.00
46464;BME280;32161;48.148;-1.554;2023-03-18T08:50:00;99985.16;;;12.75;100.00
46464;BME280;32161;48.148;-1.554;2023-03-18T08:52:28;99981.19;;;12.51;100.00
46464;BME280;32161;48.148;-1.554;2023-03-18T08:54:55;99986.13;;;12.59;100.00
46464;BME280;32161;48.148;-1.554;2023-03-18T08:57:23;99987.75;;;12.55;100.00
46464;BME280;32161;48.148;-1.554;2023-03-18T08:59:52;99990.88;;;12.74;100.00
46464;BME280;32161;48.148;-1.554;2023-03-18T09:02:21;99995.34;;;12.53;100.00
46464;BME280;32161;48.148;-1.554;2023-03-18T09:04:49;99991.63;;;12.64;100.00
46464;BME280;32161;48.148;-1.554;2023-03-18T09:07:18;99994.31;;;12.59;100.00
46464;BME280;32161;48.148;-1.554;2023-03-18T09:09:46;100004.81;;;12.40;100.00
46464;BME280;32161;48.148;-1.554;2023-03-18T09:12:14;99998.16;;;12.63;100.00
46464;BME280;32161;48.148;-1.554;2023-03-18T09:14:43;100003.75;;;12.83;100.00
46464;BME280;32161;48.148;-1.554;2023-03-18T09:17:10;99997.31;;;13.05;100.00
46464;BME280;32161;48.148;-1.554;2023-03-18T09:19:39;99995.41;;;13.00;100.00
46464;BME280;32161;48.148;-1.554;2023-03-18T09:22:07;100001.47;;;13.17;100.00
46464;BME280;32161;48.148;-1.554;2023-03-18T09:24:35;100004.72;;;13.09;100.00
46464;BME280;32161;48.148;-1.554;2023-03-18T09:27:03;100007.13;;;13.01;100.00
46464;BME280;32161;48.148;-1.554;2023-03-18T09:29:30;100006.34;;;13.10;100.00
46464;BME280;32161;48.148;-1.554;2023-03-18T09:31:58;100011.31;;;13.18;100.00
46464;BME280;32161;48.148;-1.554;2023-03-18T09:34:26;100004.88;;;13.35;100.00
46464;BME280;32161;48.148;-1.554;2023-03-18T09:36:55;100020.78;;;13.58;100.00
46464;BME280;32161;48.148;-1.554;2023-03-18T09:39:23;100016.13;;;13.54;100.00
46464;BME280;32161;48.148;-1.554;2023-03-18T09:42:05;100005.81;;;13.71;100.00
46464;BME280;32161;48.148;-1.554;2023-03-18T09:44:36;100016.22;;;13.84;100.00
46464;BME280;32161;48.148;-1.554;2023-03-18T09:47:22;100019.75;;;13.80;100.00
46464;BME280;32161;48.148;-1.554;2023-03-18T09:50:04;100026.34;;;13.84;98.08
46464;BME280;32161;48.148;-1.554;2023-03-18T09:52:43;100029.06;;;13.89;98.88
46464;BME280;32161;48.148;-1.554;2023-03-18T09:55:20;100032.81;;;13.62;98.66
46464;BME280;32161;48.148;-1.554;2023-03-18T09:57:53;100034.22;;;13.70;99.49
46464;BME280;32161;48.148;-1.554;2023-03-18T10:00:27;100032.53;;;13.54;99.49
46464;BME280;32161;48.148;-1.554;2023-03-18T10:02:59;100033.81;;;13.41;100.00
46464;BME280;32161;48.148;-1.554;2023-03-18T10:05:33;100034.19;;;13.65;100.00
46464;BME280;32161;48.148;-1.554;2023-03-18T10:08:10;100034.16;;;13.60;100.00
46464;BME280;32161;48.148;-1.554;2023-03-18T10:10:44;100043.47;;;13.64;100.00
46464;BME280;32161;48.148;-1.554;2023-03-18T10:13:17;100037.75;;;13.65;100.00
46464;BME280;32161;48.148;-1.554;2023-03-18T10:15:52;100047.00;;;13.54;100.00
46464;BME280;32161;48.148;-1.554;2023-03-18T10:18:26;100047.81;;;13.55;100.00
46464;BME280;32161;48.148;-1.554;2023-03-18T10:21:06;100048.88;;;13.49;100.00
46464;BME280;32161;48.148;-1.554;2023-03-18T10:23:46;100043.47;;;13.64;100.00
46464;BME280;32161;48.148;-1.554;2023-03-18T10:26:19;100057.41;;;13.62;100.00
46464;BME280;32161;48.148;-1.554;2023-03-18T10:29:17;100055.50;;;13.68;100.00
46464;BME280;32161;48.148;-1.554;2023-03-18T10:32:01;100061.28;;;13.82;100.00
46464;BME280;32161;48.148;-1.554;2023-03-18T10:34:40;100054.47;;;13.95;100.00
46464;BME280;32161;48.148;-1.554;2023-03-18T10:37:21;100060.53;;;14.17;100.00
46464;BME280;32161;48.148;-1.554;2023-03-18T10:39:52;100060.81;;;14.05;100.00
46464;BME280;32161;48.148;-1.554;2023-03-18T10:42:22;100062.50;;;14.27;100.00
46464;BME280;32161;48.148;-1.554;2023-03-18T10:44:52;100064.69;;;14.40;97.91
46464;BME280;32161;48.148;-1.554;2023-03-18T10:47:24;100064.41;;;14.26;97.01
46464;BME280;32161;48.148;-1.554;2023-03-18T10:50:04;100065.25;;;14.42;98.15
46464;BME280;32161;48.148;-1.554;2023-03-18T10:52:41;100065.78;;;14.39;96.53
46464;BME280;32161;48.148;-1.554;2023-03-18T10:55:17;100066.66;;;14.50;97.25
46464;BME280;32161;48.148;-1.554;2023-03-18T10:57:47;100058.97;;;14.52;97.71
46464;BME280;32161;48.148;-1.554;2023-03-18T11:00:28;100068.25;;;14.56;95.53
46464;BME280;32161;48.148;-1.554;2023-03-18T11:02:58;100070.19;;;14.55;93.45
46464;BME280;32161;48.148;-1.554;2023-03-18T11:05:29;100072.66;;;14.52;94.45
46464;BME280;32161;48.148;-1.554;2023-03-18T11:08:00;100078.34;;;14.45;96.09
46464;BME280;32161;48.148;-1.554;2023-03-18T11:10:33;100074.84;;;14.50;96.69
46464;BME280;32161;48.148;-1.554;2023-03-18T11:13:02;100075.66;;;14.50;94.83
46464;BME280;32161;48.148;-1.554;2023-03-18T11:15:37;100075.88;;;14.49;95.52
46464;BME280;32161;48.148;-1.554;2023-03-18T11:18:05;100075.06;;;14.28;98.31
46464;BME280;32161;48.148;-1.554;2023-03-18T11:20:42;100078.06;;;14.26;99.16
46464;BME280;32161;48.148;-1.554;2023-03-18T11:23:16;100072.28;;;14.17;100.00
46464;BME280;32161;48.148;-1.554;2023-03-18T11:25:47;100077.53;;;14.45;99.96
46464;BME280;32161;48.148;-1.554;2023-03-18T11:28:21;100077.53;;;14.45;99.90
46464;BME280;32161;48.148;-1.554;2023-03-18T11:30:56;100070.72;;;14.52;100.00
46464;BME280;32161;48.148;-1.554;2023-03-18T11:33:29;100076.22;;;14.78;100.00
46464;BME280;32161;48.148;-1.554;2023-03-18T11:36:03;100066.34;;;14.97;98.43
46464;BME280;32161;48.148;-1.554;2023-03-18T11:38:34;100061.66;;;15.13;99.79
46464;BME280;32161;48.148;-1.554;2023-03-18T11:41:08;100077.25;;;15.02;100.00
46464;BME280;32161;48.148;-1.554;2023-03-18T11:43:36;100070.38;;;15.25;99.24
46464;BME280;32161;48.148;-1.554;2023-03-18T11:46:06;100066.56;;;15.26;95.43
46464;BME280;32161;48.148;-1.554;2023-03-18T11:48:37;100061.66;;;15.08;94.65
46464;BME280;32161;48.148;-1.554;2023-03-18T11:51:37;100060.28;;;15.16;92.24
46464;BME280;32161;48.148;-1.554;2023-03-18T11:54:16;100069.59;;;15.20;90.62
46464;BME280;32161;48.148;-1.554;2023-03-18T11:56:52;100074.78;;;15.21;89.90
46464;BME280;32161;48.148;-1.554;2023-03-18T11:59:40;100079.47;;;15.05;92.07
46464;BME280;32161;48.148;-1.554;2023-03-18T12:02:29;100088.22;;;15.07;89.70
46464;BME280;32161;48.148;-1.554;2023-03-18T12:05:42;100089.06;;;14.93;90.20
46464;BME280;32161;48.148;-1.554;2023-03-18T12:08:25;100088.25;;;14.77;91.02
46464;BME280;32161;48.148;-1.554;2023-03-18T12:11:05;100098.34;;;14.56;93.92
46464;BME280;32161;48.148;-1.554;2023-03-18T12:13:47;100098.34;;;14.46;94.51
46464;BME280;32161;48.148;-1.554;2023-03-18T12:16:30;100096.94;;;14.48;95.13
46464;BME280;32161;48.148;-1.554;2023-03-18T12:19:23;100095.34;;;14.62;94.61
46464;BME280;32161;48.148;-1.554;2023-03-18T12:22:11;100093.97;;;14.60;94.69
46464;BME280;32161;48.148;-1.554;2023-03-18T12:24:57;100094.00;;;14.50;94.94
46464;BME280;32161;48.148;-1.554;2023-03-18T12:27:39;100095.56;;;14.40;93.89
46464;BME280;32161;48.148;-1.554;2023-03-18T12:30:49;100097.50;;;14.40;94.03
46464;BME280;32161;48.148;-1.554;2023-03-18T12:33:42;100100.22;;;14.30;95.09
46464;BME280;32161;48.148;-1.554;2023-03-18T12:36:22;100104.94;;;14.50;94.05
46464;BME280;32161;48.148;-1.554;2023-03-18T12:42:07;100107.31;;;14.41;95.71
46464;BME280;32161;48.148;-1.554;2023-03-18T12:44:56;100101.59;;;14.37;97.34
46464;BME280;32161;48.148;-1.554;2023-03-18T12:47:32;100102.13;;;14.45;97.92
46464;BME280;32161;48.148;-1.554;2023-03-18T12:50:08;100103.81;;;14.56;99.75
46464;BME280;32161;48.148;-1.554;2023-03-18T12:52:44;100105.22;;;14.84;98.19
46464;BME280;32161;48.148;-1.554;2023-03-18T12:55:17;100106.00;;;14.95;96.61
46464;BME280;32161;48.148;-1.554;2023-03-18T12:57:49;100105.47;;;14.82;95.61
46464;BME280;32161;48.148;-1.554;2023-03-18T13:00:23;100109.59;;;14.85;95.83
46464;BME280;32161;48.148;-1.554;2023-03-18T13:03:01;100106.56;;;14.86;94.70